Time;durP1;ratioP1;P1;durP2;ratioP2;P2;SDS_P1;SDS_P2;PMS_P1;PMS_P2;Temp;Humidity;BMP_temperature;BMP_pressure;BME280_temperature;BME280_humidity;BME280_pressure;Samples;Min_cycle;Max_cycle;Signal;HPM_P1;HPM_P2
2023/07/16 00:01:53;;;;;;;;;1.00;1.00;;;;;18.34;61.70;100686.09;4947972;28;9615;-68
2023/07/16 00:04:20;;;;;;;;;1.25;1.00;;;;;18.34;61.29;100690.72;4942343;28;8834;-67
2023/07/16 00:06:46;;;;;;;;;1.75;1.75;;;;;18.28;61.15;100692.56;4945744;28;8840;-67
2023/07/16 00:09:13;;;;;;;;;2.33;2.33;;;;;18.24;60.95;100691.41;4948212;28;8950;-66
2023/07/16 00:11:39;;;;;;;;;3.25;1.75;;;;;18.17;61.26;100688.84;4946426;28;9000;-69
2023/07/16 00:14:06;;;;;;;;;1.50;1.50;;;;;18.19;61.34;100691.31;4948827;28;8970;-68
2023/07/16 00:16:33;;;;;;;;;1.25;1.00;;;;;18.19;61.04;100691.31;4967259;28;8903;-69
2023/07/16 00:18:59;;;;;;;;;2.00;2.00;;;;;18.20;61.32;100687.53;4952520;28;8824;-69
2023/07/16 00:21:26;;;;;;;;;1.00;1.00;;;;;18.18;61.20;100679.59;4952855;28;8946;-64
2023/07/16 00:23:52;;;;;;;;;1.00;0.50;;;;;18.15;60.75;100679.25;4951890;28;8847;-64
2023/07/16 00:26:19;;;;;;;;;1.00;1.00;;;;;18.12;60.77;100666.97;4953024;28;8960;-66
2023/07/16 00:28:45;;;;;;;;;1.00;1.00;;;;;18.13;60.96;100684.97;4966122;28;8862;-66
2023/07/16 00:31:12;;;;;;;;;1.00;1.00;;;;;18.14;60.74;100674.88;4962846;28;8875;-64
2023/07/16 00:33:38;;;;;;;;;4.00;3.00;;;;;18.13;60.75;100684.13;4992986;28;8939;-64
2023/07/16 00:36:05;;;;;;;;;2.00;2.00;;;;;18.13;60.76;100678.69;4952299;28;8848;-67
2023/07/16 00:38:31;;;;;;;;;2.25;1.75;;;;;18.09;60.80;100681.09;4951417;28;8829;-64
2023/07/16 00:40:58;;;;;;;;;2.75;2.00;;;;;18.07;60.27;100679.66;4951868;28;8886;-65
2023/07/16 00:43:25;;;;;;;;;1.50;0.75;;;;;18.02;60.46;100678.50;4950245;28;8832;-68
2023/07/16 00:45:51;;;;;;;;;3.00;2.00;;;;;17.98;60.53;100681.97;4947486;28;8958;-67
2023/07/16 00:48:18;;;;;;;;;2.00;2.00;;;;;17.98;60.33;100677.34;4968928;28;8856;-65
2023/07/16 00:50:45;;;;;;;;;3.00;3.00;;;;;17.94;60.42;100676.19;4950466;28;9814;-65
2023/07/16 00:53:12;;;;;;;;;2.67;2.67;;;;;17.96;60.29;100670.53;4950742;28;8836;-66
2023/07/16 00:55:39;;;;;;;;;1.00;1.00;;;;;17.95;60.41;100679.78;4951877;28;8924;-65
2023/07/16 00:58:06;;;;;;;;;2.75;2.75;;;;;17.96;60.38;100684.16;4963125;28;8947;-68
2023/07/16 01:00:35;;;;;;;;;3.00;2.00;;;;;18.00;60.71;100685.31;4951398;28;8889;-65
2023/07/16 01:03:04;;;;;;;;;1.00;1.00;;;;;17.99;60.45;100689.09;4950995;28;8925;-66
2023/07/16 01:05:41;;;;;;;;;2.00;1.50;;;;;17.98;60.28;100692.88;4965796;28;8954;-65
2023/07/16 01:08:10;;;;;;;;;4.33;2.00;;;;;17.96;60.13;100690.41;4948646;28;9646;-67
2023/07/16 01:10:38;;;;;;;;;5.33;3.00;;;;;17.86;60.42;100690.22;4950267;28;8918;-66
2023/07/16 01:13:05;;;;;;;;;2.00;2.00;;;;;17.87;60.30;100682.91;4951381;28;9010;-66
2023/07/16 01:15:31;;;;;;;;;2.67;2.67;;;;;17.85;60.36;100688.56;4950467;28;9071;-65
2023/07/16 01:18:00;;;;;;;;;3.33;3.00;;;;;17.86;60.72;100697.56;4966586;28;9002;-65
2023/07/16 01:20:26;;;;;;;;;7.67;4.00;;;;;17.85;60.36;100698.66;4950831;28;8994;-66
2023/07/16 01:22:59;;;;;;;;;6.33;2.33;;;;;17.87;60.58;100693.81;4948928;28;9106;-66
2023/07/16 01:25:45;;;;;;;;;5.00;2.33;;;;;17.88;60.55;100693.53;4964926;28;9099;-66
2023/07/16 01:28:38;;;;;;;;;4.33;3.00;;;;;17.92;60.75;100694.69;4951134;28;9001;-65
2023/07/16 01:31:08;;;;;;;;;5.00;5.00;;;;;17.90;60.50;100691.38;4965878;28;9007;-65
2023/07/16 01:33:41;;;;;;;;;2.67;2.67;;;;;17.94;60.52;100699.88;4948507;28;9038;-66
2023/07/16 01:36:12;;;;;;;;;3.00;3.00;;;;;17.92;60.63;100694.69;4950057;28;8993;-65
2023/07/16 01:38:39;;;;;;;;;1.00;1.00;;;;;17.88;61.01;100693.53;4998038;28;9097;-65
2023/07/16 01:41:06;;;;;;;;;3.00;3.00;;;;;17.89;61.31;100697.91;4956808;28;9839;-64
2023/07/16 01:43:32;;;;;;;;;2.67;2.67;;;;;17.87;60.92;100686.44;4966008;28;9762;-64
2023/07/16 01:45:59;;;;;;;;;2.00;2.00;;;;;17.87;61.07;100691.06;4949986;28;8926;-66
2023/07/16 01:48:32;;;;;;;;;2.67;2.67;;;;;17.90;60.99;100701.44;4949679;28;9087;-65
2023/07/16 01:50:59;;;;;;;;;4.33;3.67;;;;;17.92;61.27;100702.03;4936295;28;8962;-64
2023/07/16 01:53:26;;;;;;;;;5.00;5.00;;;;;17.93;61.10;100700.97;4948256;28;8987;-65
2023/07/16 01:55:52;;;;;;;;;3.00;3.00;;;;;17.87;60.78;100697.34;4981653;28;9006;-66
2023/07/16 01:58:20;;;;;;;;;5.33;5.33;;;;;17.86;60.97;100701.13;4949404;28;8931;-66
2023/07/16 02:00:50;;;;;;;;;5.67;5.00;;;;;17.84;61.08;100692.38;4949306;28;9102;-66
2023/07/16 02:03:16;;;;;;;;;4.00;4.00;;;;;17.86;61.31;100692.94;4950850;28;9647;-65
2023/07/16 02:05:45;;;;;;;;;2.67;2.67;;;;;17.86;61.42;100686.69;4965598;28;8941;-65
2023/07/16 02:08:11;;;;;;;;;2.33;2.33;;;;;17.87;61.66;100682.91;4949976;28;8931;-67
2023/07/16 02:10:38;;;;;;;;;8.00;6.00;;;;;17.83;61.53;100684.47;4947124;28;9017;-65
2023/07/16 02:13:04;;;;;;;;;5.00;4.67;;;;;17.82;61.58;100689.06;4950452;28;9237;-65
2023/07/16 02:15:31;;;;;;;;;3.67;3.00;;;;;17.79;61.52;100695.84;4965530;28;9105;-65
2023/07/16 02:17:57;;;;;;;;;4.00;3.00;;;;;17.78;61.52;100687.91;4949728;28;9095;-64
2023/07/16 02:20:24;;;;;;;;;5.33;5.33;;;;;17.74;61.79;100687.59;4950589;28;9100;-66
2023/07/16 02:22:51;;;;;;;;;5.67;5.33;;;;;17.65;61.68;100699.91;4950483;28;9044;-65
2023/07/16 02:25:17;;;;;;;;;6.00;3.00;;;;;17.61;62.46;100692.47;4964378;28;9178;-65
2023/07/16 02:27:46;;;;;;;;;7.33;6.67;;;;;17.60;62.14;100693.56;4966054;28;9026;-66
2023/07/16 02:30:15;;;;;;;;;6.00;5.67;;;;;17.61;62.08;100693.28;4950531;28;9008;-65
2023/07/16 02:32:42;;;;;;;;;6.00;4.67;;;;;17.60;62.03;100686.22;4948917;28;8996;-67
2023/07/16 02:35:09;;;;;;;;;4.00;4.00;;;;;17.60;61.92;100688.94;4950561;28;8992;-66
2023/07/16 02:37:36;;;;;;;;;6.00;6.00;;;;;17.61;61.99;100678.88;4964427;28;9827;-69
2023/07/16 02:40:03;;;;;;;;;9.00;7.67;;;;;17.59;61.99;100681.03;4950401;28;9240;-65
2023/07/16 02:42:30;;;;;;;;;6.33;6.33;;;;;17.54;61.93;100679.84;4964532;28;9276;-64
2023/07/16 02:44:56;;;;;;;;;10.33;9.00;;;;;17.51;61.80;100684.97;4950231;28;9394;-66
2023/07/16 02:47:23;;;;;;;;;7.00;7.00;;;;;17.46;61.90;100690.28;4964885;28;9399;-64
2023/07/16 02:49:52;;;;;;;;;7.00;7.00;;;;;17.53;62.21;100685.53;4950323;28;9236;-63
2023/07/16 02:52:19;;;;;;;;;5.00;4.67;;;;;17.52;61.89;100690.16;4947978;28;9130;-66
2023/07/16 02:54:46;;;;;;;;;7.00;6.67;;;;;17.53;61.61;100685.53;4960124;28;9161;-65
2023/07/16 02:57:12;;;;;;;;;5.33;4.67;;;;;17.52;61.79;100683.88;4947734;28;9086;-65
2023/07/16 02:59:39;;;;;;;;;5.67;5.67;;;;;17.58;61.98;100691.06;4964418;28;9183;-67
2023/07/16 03:02:05;;;;;;;;;7.00;6.67;;;;;17.55;62.22;100692.38;4964350;28;9083;-65
2023/07/16 03:04:32;;;;;;;;;5.33;5.33;;;;;17.52;62.13;100695.59;4949917;28;9062;-65
2023/07/16 03:06:58;;;;;;;;;9.00;8.33;;;;;17.52;62.47;100697.50;4945455;28;9999;-65
2023/07/16 03:09:25;;;;;;;;;9.67;6.67;;;;;17.55;62.46;100697.00;4948554;28;9099;-66
2023/07/16 03:11:51;;;;;;;;;11.00;9.67;;;;;17.45;62.62;100703.06;4945957;28;9186;-65
2023/07/16 03:14:18;;;;;;;;;9.00;8.00;;;;;17.48;62.38;100704.50;4980365;28;9260;-66
2023/07/16 03:16:44;;;;;;;;;8.00;7.00;;;;;17.48;62.59;100715.38;4949764;28;9388;-65
2023/07/16 03:19:11;;;;;;;;;7.00;5.33;;;;;17.48;62.92;100710.75;4948076;28;9212;-67
2023/07/16 03:21:38;;;;;;;;;9.00;8.33;;;;;17.45;62.77;100704.97;4947821;28;9129;-66
2023/07/16 03:24:04;;;;;;;;;10.67;8.33;;;;;17.42;62.81;100709.03;4948164;28;9385;-66
2023/07/16 03:26:31;;;;;;;;;8.00;7.00;;;;;17.39;63.01;100705.94;4949118;28;9215;-65
2023/07/16 03:28:57;;;;;;;;;8.67;7.00;;;;;17.41;63.13;100714.69;4949339;28;9969;-67
2023/07/16 03:31:24;;;;;;;;;8.67;8.00;;;;;17.49;63.05;100712.41;4932518;28;9278;-66
2023/07/16 03:33:51;;;;;;;;;9.33;7.33;;;;;17.56;62.76;100712.25;4952803;28;9243;-65
2023/07/16 03:36:18;;;;;;;;;8.67;8.33;;;;;17.54;63.15;100722.56;4948189;28;9171;-66
2023/07/16 03:38:45;;;;;;;;;9.67;8.00;;;;;17.54;63.17;100717.09;4964233;28;9318;-66
2023/07/16 03:41:12;;;;;;;;;10.33;6.00;;;;;17.59;62.99;100724.56;4962228;28;9245;-65
2023/07/16 03:43:38;;;;;;;;;5.00;5.00;;;;;17.65;63.06;100727.13;4947938;28;9348;-66
2023/07/16 03:46:17;;;;;;;;;9.33;8.33;;;;;17.57;63.09;100732.97;4963790;28;9203;-66
2023/07/16 03:48:44;;;;;;;;;9.67;8.00;;;;;17.57;63.04;100726.69;4958454;28;9308;-66
2023/07/16 03:51:11;;;;;;;;;7.00;5.33;;;;;17.58;63.62;100733.78;4947506;28;9307;-66
2023/07/16 03:53:38;;;;;;;;;9.00;8.00;;;;;17.57;63.68;100732.13;4948289;28;9153;-65
2023/07/16 03:56:04;;;;;;;;;6.00;3.00;;;;;17.59;63.70;100736.28;4945427;28;9257;-65
2023/07/16 03:58:31;;;;;;;;;5.00;4.67;;;;;17.57;64.00;100735.69;4957625;28;9081;-66
2023/07/16 04:01:00;;;;;;;;;4.00;4.00;;;;;17.54;63.67;100741.59;4955934;28;9092;-65
2023/07/16 04:03:27;;;;;;;;;3.67;3.67;;;;;17.54;63.94;100760.66;4947158;28;8997;-65
2023/07/16 04:06:05;;;;;;;;;6.33;6.33;;;;;17.54;64.08;100764.22;4948970;28;9841;-65
2023/07/16 04:08:31;;;;;;;;;5.00;5.00;;;;;17.52;64.35;100762.81;4949191;29;8986;-65
2023/07/16 04:10:58;;;;;;;;;4.00;4.00;;;;;17.51;64.35;100763.88;4949011;29;9006;-65
2023/07/16 04:13:25;;;;;;;;;3.33;3.33;;;;;17.48;64.61;100767.09;4948259;28;9069;-67
2023/07/16 04:15:53;;;;;;;;;6.00;6.00;;;;;17.38;65.12;100769.59;4948671;28;9200;-65
2023/07/16 04:18:21;;;;;;;;;7.33;6.00;;;;;17.33;65.03;100773.03;4951485;28;9068;-66
2023/07/16 04:20:47;;;;;;;;;5.67;4.67;;;;;17.33;64.92;100766.75;4948570;28;9166;-65
2023/07/16 04:23:14;;;;;;;;;3.00;3.00;;;;;17.33;65.30;100767.59;4949146;29;9202;-65
2023/07/16 04:25:40;;;;;;;;;4.00;4.00;;;;;17.32;64.95;100767.84;4947752;28;9113;-65
2023/07/16 04:28:07;;;;;;;;;6.00;6.00;;;;;17.30;65.08;100762.66;4948465;28;9177;-65
2023/07/16 04:30:33;;;;;;;;;8.67;5.33;;;;;17.35;64.87;100760.03;4948445;29;9236;-66
2023/07/16 04:33:00;;;;;;;;;5.67;4.33;;;;;17.34;65.09;100763.81;4944677;28;9115;-65
2023/07/16 04:35:26;;;;;;;;;8.33;8.33;;;;;17.29;65.24;100771.84;4948702;28;9062;-65
2023/07/16 04:37:53;;;;;;;;;7.33;7.00;;;;;17.33;65.39;100772.22;4948441;28;9178;-66
2023/07/16 04:40:19;;;;;;;;;8.00;6.00;;;;;17.29;65.18;100775.41;4950870;28;9151;-68
2023/07/16 04:42:46;;;;;;;;;6.33;6.33;;;;;17.29;65.59;100771.84;4948273;28;9275;-66
2023/07/16 04:45:12;;;;;;;;;6.00;6.00;;;;;17.36;65.35;100777.19;4948121;28;9255;-66
2023/07/16 04:47:39;;;;;;;;;7.33;7.33;;;;;17.45;65.48;100783.88;4947548;28;9399;-66
2023/07/16 04:50:06;;;;;;;;;8.67;5.00;;;;;17.47;65.45;100782.59;4937186;28;9262;-66
2023/07/16 04:52:32;;;;;;;;;5.00;5.00;;;;;17.49;65.28;100783.16;4949089;28;9099;-66
2023/07/16 04:54:59;;;;;;;;;5.33;5.33;;;;;17.52;64.99;100773.69;4948521;29;9199;-66
2023/07/16 04:57:25;;;;;;;;;4.00;4.00;;;;;17.55;65.09;100784.94;4948496;28;9220;-65
2023/07/16 04:59:53;;;;;;;;;8.67;6.00;;;;;17.52;65.32;100793.56;4947713;28;9171;-67
2023/07/16 05:02:21;;;;;;;;;8.00;7.33;;;;;17.47;65.05;100795.38;4951131;28;9155;-64
2023/07/16 05:04:48;;;;;;;;;7.33;7.00;;;;;17.48;65.00;100786.97;4950884;28;9233;-66
2023/07/16 05:07:14;;;;;;;;;5.33;3.67;;;;;17.54;64.73;100796.88;4949606;28;9220;-66
2023/07/16 05:09:42;;;;;;;;;7.33;6.67;;;;;17.56;64.71;100804.81;4950685;28;9075;-65
2023/07/16 05:12:09;;;;;;;;;10.33;6.67;;;;;17.58;64.25;100794.47;4950992;28;9440;-67
2023/07/16 05:14:47;;;;;;;;;5.00;5.00;;;;;17.54;64.62;100798.75;4966427;28;9148;-64
2023/07/16 05:17:14;;;;;;;;;5.33;5.33;;;;;17.45;64.56;100802.94;4948511;28;9094;-66
2023/07/16 05:19:42;;;;;;;;;7.00;6.00;;;;;17.43;64.45;100797.75;4949542;28;9093;-66
2023/07/16 05:22:08;;;;;;;;;9.00;6.33;;;;;17.41;64.23;100799.88;4963685;28;9206;-67
2023/07/16 05:24:35;;;;;;;;;9.33;8.33;;;;;17.49;64.58;100807.66;4950029;28;9341;-64
2023/07/16 05:27:01;;;;;;;;;5.00;5.00;;;;;17.45;64.48;100803.75;4951098;28;9156;-65
2023/07/16 05:29:28;;;;;;;;;8.33;8.33;;;;;17.37;64.54;100812.28;4951515;28;9146;-64
2023/07/16 05:31:54;;;;;;;;;5.00;5.00;;;;;17.43;64.18;100811.34;4946970;28;9243;-65
2023/07/16 05:34:21;;;;;;;;;6.33;6.33;;;;;17.45;64.31;100809.19;4943145;28;9283;-66
2023/07/16 05:36:47;;;;;;;;;7.00;5.33;;;;;17.44;63.85;100807.56;4949198;28;9181;-66
2023/07/16 05:39:14;;;;;;;;;7.67;7.67;;;;;17.49;63.40;100806.81;4949030;28;9026;-65
2023/07/16 05:41:41;;;;;;;;;7.67;7.00;;;;;17.62;63.26;100819.31;4942638;28;9322;-66
2023/07/16 05:44:08;;;;;;;;;6.00;6.00;;;;;17.69;62.88;100820.03;4953659;28;9394;-66
2023/07/16 05:46:35;;;;;;;;;8.33;7.00;;;;;17.82;62.15;100830.66;4946595;28;9064;-64
2023/07/16 05:49:01;;;;;;;;;6.00;6.00;;;;;17.96;61.51;100818.41;4951013;28;9331;-66
2023/07/16 05:51:28;;;;;;;;;5.33;4.00;;;;;18.12;61.34;100807.81;4951002;28;9009;-65
2023/07/16 05:53:54;;;;;;;;;6.00;6.00;;;;;18.18;60.66;100823.16;4949467;28;9026;-64
2023/07/16 05:56:21;;;;;;;;;6.00;6.00;;;;;18.25;60.14;100826.56;4964789;28;9122;-65
2023/07/16 05:58:47;;;;;;;;;6.00;5.33;;;;;18.21;60.33;100845.28;4948028;28;8979;-68
2023/07/16 06:01:14;;;;;;;;;4.67;4.67;;;;;18.27;60.24;100830.72;4949357;28;9615;-65
2023/07/16 06:03:40;;;;;;;;;10.00;6.67;;;;;18.33;59.63;100834.34;4947208;28;8938;-66
2023/07/16 06:06:10;;;;;;;;;5.33;5.33;;;;;18.39;59.49;100835.25;4950934;28;8920;-65
2023/07/16 06:08:36;;;;;;;;;7.00;5.00;;;;;18.38;59.56;100833.59;4950772;28;9718;-64
2023/07/16 06:11:03;;;;;;;;;7.00;6.00;;;;;18.37;59.88;100849.13;4945728;28;9068;-66
2023/07/16 06:13:30;;;;;;;;;7.67;6.67;;;;;18.25;59.85;100846.47;4949305;28;9611;-66
2023/07/16 06:15:56;;;;;;;;;5.67;5.67;;;;;18.16;60.59;100845.22;4965296;28;9026;-66
2023/07/16 06:18:23;;;;;;;;;6.33;6.33;;;;;18.11;60.79;100841.53;4950549;28;8916;-66
2023/07/16 06:20:51;;;;;;;;;6.67;6.67;;;;;17.97;60.94;100847.31;4950013;28;9023;-68
2023/07/16 06:23:18;;;;;;;;;9.33;8.33;;;;;18.03;61.10;100854.50;4950492;28;9112;-68
2023/07/16 06:25:46;;;;;;;;;8.00;4.67;;;;;18.12;61.31;100856.84;4953890;28;9014;-67
2023/07/16 06:28:13;;;;;;;;;5.67;5.67;;;;;18.10;61.69;100861.69;4978027;28;8932;-67
2023/07/16 06:30:40;;;;;;;;;9.00;7.00;;;;;17.98;61.50;100864.47;4948977;28;9033;-68
2023/07/16 06:33:06;;;;;;;;;6.00;4.67;;;;;18.06;61.63;100874.16;4950819;28;9937;-69
2023/07/16 06:35:33;;;;;;;;;8.00;4.67;;;;;18.03;61.87;100865.41;4950776;28;9159;-67
2023/07/16 06:37:59;;;;;;;;;6.00;5.67;;;;;17.95;62.01;100864.97;4948588;28;9117;-69
2023/07/16 06:40:26;;;;;;;;;9.67;8.33;;;;;17.97;62.27;100873.72;4950025;28;9057;-68
2023/07/16 06:42:52;;;;;;;;;7.67;7.33;;;;;17.98;61.90;100887.06;4947413;28;9802;-68
2023/07/16 06:45:19;;;;;;;;;8.33;7.33;;;;;17.90;61.82;100875.75;4950582;28;9907;-67
2023/07/16 06:47:45;;;;;;;;;7.00;7.00;;;;;17.96;61.87;100897.41;4950249;28;9041;-68
2023/07/16 06:50:12;;;;;;;;;6.67;6.00;;;;;17.92;61.37;100895.41;4961787;28;9050;-68
2023/07/16 06:52:38;;;;;;;;;6.33;6.33;;;;;18.04;61.51;100899.75;4952126;28;9077;-68
2023/07/16 06:55:05;;;;;;;;;9.00;7.67;;;;;18.04;60.36;100905.19;4979713;28;9092;-68
2023/07/16 06:57:31;;;;;;;;;8.00;6.67;;;;;17.99;60.18;100902.38;4943512;29;9183;-69
2023/07/16 06:59:58;;;;;;;;;9.00;9.00;;;;;18.08;60.89;100896.53;4946711;28;9227;-68
2023/07/16 07:02:24;;;;;;;;;6.67;6.67;;;;;18.14;60.57;100901.81;4948796;28;9066;-68
2023/07/16 07:04:51;;;;;;;;;6.00;5.33;;;;;18.16;60.42;100923.41;4942013;28;9063;-69
2023/07/16 07:07:17;;;;;;;;;7.33;7.33;;;;;18.14;60.02;100920.91;4947926;28;9070;-67
2023/07/16 07:09:48;;;;;;;;;10.33;7.00;;;;;18.03;60.23;100914.44;4948928;28;9208;-69
2023/07/16 07:12:15;;;;;;;;;9.00;9.00;;;;;18.10;60.63;100906.09;4947264;28;9163;-68
2023/07/16 07:14:41;;;;;;;;;7.00;5.33;;;;;18.16;60.66;100910.59;4949814;28;9339;-68
2023/07/16 07:17:08;;;;;;;;;9.33;6.67;;;;;18.27;60.81;100908.88;4950240;28;9232;-67
2023/07/16 07:19:34;;;;;;;;;8.67;8.67;;;;;18.29;60.36;100915.75;4948534;28;9071;-67
2023/07/16 07:22:00;;;;;;;;;9.00;6.33;;;;;18.23;60.87;100899.53;4946437;28;9160;-68
2023/07/16 07:24:27;;;;;;;;;7.33;7.00;;;;;18.26;61.26;100920.84;4948130;28;9045;-66
2023/07/16 07:26:54;;;;;;;;;8.67;7.33;;;;;18.32;61.46;100917.19;4949118;28;9089;-68
2023/07/16 07:29:20;;;;;;;;;9.33;7.67;;;;;18.37;61.45;100917.25;4949469;28;9001;-68
2023/07/16 07:31:47;;;;;;;;;7.33;6.00;;;;;18.38;61.13;100912.63;4948210;28;9151;-68
2023/07/16 07:34:13;;;;;;;;;6.33;4.33;;;;;18.37;61.42;100927.34;4948487;28;9173;-67
2023/07/16 07:36:40;;;;;;;;;8.33;6.00;;;;;18.44;61.22;100947.94;4947137;28;8959;-65
2023/07/16 07:39:07;;;;;;;;;6.33;6.33;;;;;18.37;61.46;100952.69;4950997;28;9090;-67
2023/07/16 07:41:33;;;;;;;;;8.67;6.67;;;;;18.37;61.33;100946.41;4943463;28;9071;-67
2023/07/16 07:44:00;;;;;;;;;5.33;5.33;;;;;18.41;60.88;100948.41;4948809;28;9186;-68
2023/07/16 07:46:26;;;;;;;;;11.00;8.00;;;;;18.35;60.99;100948.53;4946208;28;9036;-68
2023/07/16 07:48:53;;;;;;;;;9.00;7.67;;;;;18.35;61.05;100940.38;4978131;28;8988;-67
2023/07/16 07:51:20;;;;;;;;;9.33;8.33;;;;;18.35;60.70;100962.16;4948425;28;9142;-69
2023/07/16 07:53:46;;;;;;;;;6.00;6.00;;;;;18.41;60.86;100977.56;4948046;28;8999;-67
2023/07/16 07:56:13;;;;;;;;;7.00;6.00;;;;;18.30;60.90;100952.00;4948423;28;8994;-69
2023/07/16 07:58:40;;;;;;;;;8.00;7.00;;;;;18.34;61.09;100955.06;4948609;28;9091;-69
2023/07/16 08:01:07;;;;;;;;;6.67;6.67;;;;;18.36;61.09;100961.13;4952369;28;9734;-71
2023/07/16 08:03:35;;;;;;;;;8.00;8.00;;;;;18.45;61.25;100962.38;4947278;28;9000;-68
2023/07/16 08:06:01;;;;;;;;;9.00;8.00;;;;;18.47;60.74;100969.25;4956127;28;9791;-67
2023/07/16 08:08:28;;;;;;;;;8.33;8.00;;;;;18.46;60.65;100964.03;4947310;28;9158;-68
2023/07/16 08:10:55;;;;;;;;;8.67;8.00;;;;;18.46;60.99;100964.84;4943481;28;9175;-69
2023/07/16 08:13:21;;;;;;;;;8.33;7.00;;;;;18.47;60.77;100976.56;4948811;28;9922;-69
2023/07/16 08:15:48;;;;;;;;;10.00;8.33;;;;;18.37;60.63;100968.22;4947482;28;9094;-68
2023/07/16 08:18:14;;;;;;;;;12.00;9.00;;;;;18.39;60.72;100971.50;4946201;29;9167;-68
2023/07/16 08:20:41;;;;;;;;;11.33;8.67;;;;;18.28;60.50;100960.44;4945264;28;9062;-68
2023/07/16 08:23:08;;;;;;;;;6.33;6.33;;;;;18.39;61.13;100975.09;4947439;28;9818;-65
2023/07/16 08:25:34;;;;;;;;;8.67;8.67;;;;;18.50;61.09;100971.47;4945392;28;8989;-68
2023/07/16 08:28:04;;;;;;;;;10.67;9.33;;;;;18.59;60.76;100971.91;4947465;29;9075;-68
2023/07/16 08:30:32;;;;;;;;;8.67;7.00;;;;;18.63;60.65;100970.34;4952526;28;9087;-68
2023/07/16 08:32:58;;;;;;;;;11.00;9.00;;;;;18.65;60.64;100970.94;4948415;28;9168;-68
2023/07/16 08:35:25;;;;;;;;;7.00;6.33;;;;;18.72;60.84;100982.56;4945297;28;8905;-66
2023/07/16 08:37:51;;;;;;;;;10.67;9.33;;;;;18.80;61.24;100978.59;4949641;28;9001;-67
2023/07/16 08:40:20;;;;;;;;;8.67;7.33;;;;;18.77;60.55;100999.00;4947333;28;8955;-68
2023/07/16 08:42:48;;;;;;;;;7.00;6.67;;;;;18.60;60.45;100986.38;4946543;28;9108;-68
2023/07/16 08:45:16;;;;;;;;;7.00;7.00;;;;;18.66;60.58;100979.94;4966546;28;8895;-68
2023/07/16 08:47:43;;;;;;;;;7.67;7.67;;;;;18.66;60.68;100988.94;4934785;28;8997;-69
2023/07/16 08:50:10;;;;;;;;;8.67;8.00;;;;;18.71;60.59;100999.16;4951963;28;9024;-67
2023/07/16 08:52:37;;;;;;;;;9.00;7.33;;;;;18.68;60.93;101000.44;4966731;28;9010;-67
2023/07/16 08:55:04;;;;;;;;;9.00;8.67;;;;;18.63;60.94;100999.50;4951905;28;8987;-69
2023/07/16 08:57:31;;;;;;;;;10.67;10.67;;;;;18.70;61.44;101011.97;4950390;28;9268;-67
2023/07/16 08:59:58;;;;;;;;;10.00;9.33;;;;;18.76;61.39;101012.91;4951750;28;9192;-69
2023/07/16 09:02:24;;;;;;;;;8.67;7.00;;;;;18.87;61.26;101005.72;4949191;28;9139;-69
2023/07/16 09:04:52;;;;;;;;;13.67;8.67;;;;;18.89;61.44;100998.13;4943681;28;8999;-67
2023/07/16 09:07:18;;;;;;;;;9.67;9.67;;;;;18.92;60.77;101000.34;4942808;28;9179;-69
2023/07/16 09:09:59;;;;;;;;;7.00;7.00;;;;;18.88;60.25;101021.00;4954897;28;9179;-66
2023/07/16 09:12:26;;;;;;;;;5.75;5.00;;;;;18.87;59.52;101033.00;4936492;28;8909;-68
2023/07/16 09:14:54;;;;;;;;;6.00;6.00;;;;;18.86;59.78;101021.25;4951319;28;8828;-66
2023/07/16 09:17:24;;;;;;;;;8.00;7.00;;;;;18.77;59.58;101012.66;4940845;28;9100;-66
2023/07/16 09:19:52;;;;;;;;;7.00;7.00;;;;;18.82;59.46;101031.00;4974490;28;9009;-67
2023/07/16 09:22:19;;;;;;;;;7.00;6.00;;;;;18.85;59.57;101024.25;4952886;28;8986;-68
2023/07/16 09:24:47;;;;;;;;;8.33;7.33;;;;;18.92;59.61;101016.72;4951401;28;8955;-67
2023/07/16 09:27:14;;;;;;;;;5.25;5.25;;;;;18.98;59.88;101026.66;4948965;28;9063;-67
2023/07/16 09:29:40;;;;;;;;;7.33;6.33;;;;;19.02;59.80;101025.91;4948869;28;8824;-68
2023/07/16 09:32:07;;;;;;;;;8.33;7.00;;;;;19.10;59.69;101032.88;4964683;28;8995;-68
2023/07/16 09:34:34;;;;;;;;;6.50;6.50;;;;;19.10;59.67;101038.31;4964800;28;9087;-66
2023/07/16 09:37:01;;;;;;;;;9.00;6.67;;;;;19.12;59.79;101048.97;4964913;28;8832;-68
2023/07/16 09:39:28;;;;;;;;;6.25;6.25;;;;;19.22;59.65;101028.16;4951199;28;8945;-67
2023/07/16 09:41:57;;;;;;;;;5.25;4.00;;;;;19.30;59.53;101031.56;4980856;28;8824;-68
2023/07/16 09:44:24;;;;;;;;;8.67;6.67;;;;;19.23;59.65;101048.91;4948818;28;8870;-68
2023/07/16 09:46:51;;;;;;;;;6.33;6.00;;;;;19.21;59.63;101050.25;4947423;28;8952;-67
2023/07/16 09:49:17;;;;;;;;;5.33;5.00;;;;;19.15;59.36;101054.78;4950491;28;9008;-68
2023/07/16 09:51:45;;;;;;;;;4.33;4.33;;;;;19.21;59.85;101051.09;4945896;28;9061;-66
2023/07/16 09:54:15;;;;;;;;;7.67;6.00;;;;;19.21;59.78;101056.53;5025211;28;9133;-68
2023/07/16 09:56:45;;;;;;;;;9.33;8.33;;;;;19.10;59.62;101064.78;4946216;28;9008;-68
2023/07/16 09:59:15;;;;;;;;;9.00;9.00;;;;;18.99;59.49;101066.50;4953807;28;8980;-69
2023/07/16 10:01:42;;;;;;;;;9.00;9.00;;;;;19.03;59.26;101075.84;4963155;28;9059;-68
2023/07/16 10:04:12;;;;;;;;;9.00;7.67;;;;;19.03;59.34;101082.13;4953254;28;9098;-67
2023/07/16 10:06:56;;;;;;;;;8.67;8.00;;;;;19.01;59.56;101083.47;4940951;28;9021;-67
2023/07/16 10:09:56;;;;;;;;;7.67;7.67;;;;;18.99;59.39;101083.69;4964556;28;9034;-69
2023/07/16 10:12:25;;;;;;;;;8.00;5.75;;;;;19.09;59.34;101080.34;4953443;28;8941;-67
2023/07/16 10:14:57;;;;;;;;;7.33;7.33;;;;;18.97;59.07;101094.03;4948825;28;8829;-68
2023/07/16 10:17:25;;;;;;;;;9.67;8.33;;;;;18.92;59.65;101099.41;4945765;28;9090;-69
2023/07/16 10:19:59;;;;;;;;;5.50;5.00;;;;;18.91;60.43;101088.72;4946369;28;8927;-69
2023/07/16 10:22:35;;;;;;;;;4.50;3.75;;;;;18.88;60.53;101100.09;4946816;28;8820;-67
2023/07/16 10:25:17;;;;;;;;;5.00;5.00;;;;;18.99;60.48;101105.50;4949791;28;8863;-68
2023/07/16 10:27:45;;;;;;;;;7.00;7.00;;;;;19.04;60.58;101102.09;4945153;28;8852;-68
2023/07/16 10:30:12;;;;;;;;;3.50;3.50;;;;;19.15;60.46;101111.28;4958718;28;8933;-67
2023/07/16 10:32:39;;;;;;;;;8.67;6.33;;;;;19.28;60.24;101119.13;4983568;28;8816;-68
2023/07/16 10:35:10;;;;;;;;;5.00;4.25;;;;;19.39;59.98;101099.16;4948914;28;8936;-68
2023/07/16 10:37:38;;;;;;;;;6.50;4.00;;;;;19.51;59.66;101101.81;4949948;28;8978;-69
2023/07/16 10:40:06;;;;;;;;;6.25;6.00;;;;;19.60;59.12;101111.25;4949882;28;8836;-69
2023/07/16 10:42:32;;;;;;;;;3.50;3.50;;;;;19.59;58.77;101114.22;4950110;28;8832;-68
2023/07/16 10:45:01;;;;;;;;;7.25;6.00;;;;;19.56;58.83;101103.78;4950247;28;8840;-68
2023/07/16 10:47:33;;;;;;;;;3.75;3.75;;;;;19.44;58.30;101109.31;4950197;28;8824;-68
2023/07/16 10:50:02;;;;;;;;;5.75;5.75;;;;;19.45;58.78;101117.28;4950340;28;8828;-67
2023/07/16 10:52:29;;;;;;;;;6.00;5.00;;;;;19.43;58.69;101121.31;4950073;28;8820;-68
2023/07/16 10:54:57;;;;;;;;;4.75;4.50;;;;;19.43;58.43;101126.78;4964452;28;8864;-67
2023/07/16 10:57:25;;;;;;;;;3.75;3.75;;;;;19.47;58.25;101125.22;4950168;28;8829;-67
2023/07/16 10:59:52;;;;;;;;;5.75;5.75;;;;;19.46;58.01;101116.22;4950105;28;8871;-67
2023/07/16 11:02:21;;;;;;;;;5.75;5.50;;;;;19.51;57.95;101104.53;4948629;28;8913;-68
2023/07/16 11:04:48;;;;;;;;;6.00;4.00;;;;;19.62;57.65;101128.25;4949915;28;8832;-68
2023/07/16 11:07:15;;;;;;;;;3.75;2.00;;;;;19.63;56.31;101129.06;4965057;28;9585;-67
2023/07/16 11:09:47;;;;;;;;;7.50;3.00;;;;;19.75;54.37;101130.66;4949939;28;8824;-70
2023/07/16 11:12:15;;;;;;;;;2.00;2.00;;;;;19.83;53.66;101132.16;4949049;28;8840;-66
2023/07/16 11:14:44;;;;;;;;;3.75;3.75;;;;;19.85;53.21;101138.19;4949802;28;8852;-66
2023/07/16 11:17:12;;;;;;;;;3.00;2.00;;;;;19.83;53.15;101118.47;4949197;28;8864;-68
2023/07/16 11:19:39;;;;;;;;;3.00;2.50;;;;;19.86;53.14;101144.50;4964436;28;8838;-67
2023/07/16 11:22:07;;;;;;;;;2.00;2.00;;;;;19.85;52.59;101149.13;4949436;28;8866;-68
2023/07/16 11:24:52;;;;;;;;;5.25;3.00;;;;;19.88;52.67;101150.50;4949425;28;8909;-69
2023/07/16 11:27:27;;;;;;;;;2.00;2.00;;;;;20.09;53.19;101144.28;4947709;28;8836;-68
2023/07/16 11:29:56;;;;;;;;;2.50;2.50;;;;;20.06;51.97;101142.06;4949341;28;8832;-67
2023/07/16 11:32:37;;;;;;;;;3.00;2.00;;;;;20.06;51.21;101147.53;4948933;28;8844;-67
2023/07/16 11:35:06;;;;;;;;;2.00;2.00;;;;;20.04;51.08;101146.94;4948305;28;8851;-68
2023/07/16 11:37:34;;;;;;;;;4.00;2.00;;;;;20.10;51.09;101156.91;4964055;28;8856;-67